Time;durP1;ratioP1;P1;durP2;ratioP2;P2;SDS_P1;SDS_P2;PMS_P1;PMS_P2;Temp;Humidity;BMP_temperature;BMP_pressure;BME280_temperature;BME280_humidity;BME280_pressure;Samples;Min_cycle;Max_cycle;Signal;HPM_P1;HPM_P2
2023/12/07 00:03:00;;;;;;;;;;;;;;;;;;;;;
2023/12/07 00:10:08;;;;;;;26.73;8.43;;;3.60;99.90;;;;;;4812214;24;20220;-96
2023/12/07 00:17:21;;;;;;;23.03;8.13;;;3.70;99.90;;;;;;4822600;24;20176;-95
2023/12/07 00:20:33;;;;;;;27.33;8.37;;;3.70;99.90;;;;;;4824073;24;20200;-96
2023/12/07 00:29:55;;;;;;;22.90;7.77;;;3.70;99.90;;;;;;5086185;23;20216;-96
2023/12/07 00:32:25;;;;;;;35.67;9.03;;;3.70;99.90;;;;;;5045344;23;20184;-96
2023/12/07 00:35:27;;;;;;;26.07;9.83;;;3.80;99.90;;;;;;5081631;23;20208;-96
2023/12/07 00:38:39;;;;;;;27.20;8.83;;;4.00;99.90;;;;;;5017673;23;20185;-95
2023/12/07 00:41:29;;;;;;;21.10;6.77;;;4.00;99.90;;;;;;5069202;23;20170;-96
2023/12/07 00:43:49;;;;;;;15.90;6.77;;;4.10;99.90;;;;;;5058711;23;20174;-95
2023/12/07 00:46:31;;;;;;;18.73;6.43;;;4.10;99.90;;;;;;5039552;23;20175;-96
2023/12/07 00:53:02;;;;;;;16.30;5.33;;;4.50;99.90;;;;;;4964609;24;20161;-95
2023/12/07 00:55:34;;;;;;;19.37;6.80;;;4.30;99.90;;;;;;5076628;23;20181;-96
2023/12/07 00:58:02;;;;;;;15.70;7.83;;;4.20;99.90;;;;;;5016596;23;20666;-95
2023/12/07 01:01:10;;;;;;;20.77;6.90;;;4.30;99.90;;;;;;5057962;23;20162;-95
2023/12/07 01:03:30;;;;;;;13.60;5.40;;;4.30;99.90;;;;;;5048020;23;20166;-95
2023/12/07 01:06:04;;;;;;;13.63;6.37;;;4.30;99.90;;;;;;5033970;23;20229;-96
2023/12/07 01:09:01;;;;;;;23.17;7.33;;;4.20;99.90;;;;;;5056805;23;20247;-95
2023/12/07 01:11:57;;;;;;;;;;;;;;;;;;;;;
2023/12/07 01:14:37;;;;;;;30.97;7.87;;;4.20;99.90;;;;;;5058719;23;20192;-96
2023/12/07 01:17:45;;;;;;;;;;;;;;;;;;;;;
2023/12/07 01:20:17;;;;;;;8.10;3.93;;;4.20;99.90;;;;;;5060461;23;20154;-96
2023/12/07 01:23:00;;;;;;;11.63;4.73;;;4.00;99.90;;;;;;5056360;23;20161;-95
2023/12/07 01:25:23;;;;;;;;;;;;;;;;;;;;;
2023/12/07 01:28:29;;;;;;;9.73;4.70;;;4.10;99.90;;;;;;5083368;23;20216;-95
2023/12/07 01:31:05;;;;;;;13.27;4.30;;;4.10;99.90;;;;;;5033991;23;20173;-95
2023/12/07 01:33:09;;;;;;;14.57;4.53;;;3.90;99.90;;;;;;5009868;23;20241;-96
2023/12/07 01:35:42;;;;;;;15.73;4.77;;;4.00;99.90;;;;;;5031457;23;20178;-96
2023/12/07 01:38:26;;;;;;;;;;;;;;;;;;;;;
2023/12/07 01:40:37;;;;;;;11.50;4.03;;;4.00;99.90;;;;;;5056434;23;20601;-96
2023/12/07 01:43:00;;;;;;;14.90;4.83;;;3.80;99.90;;;;;;5057527;23;20154;-96
2023/12/07 01:45:56;;;;;;;9.03;4.10;;;3.90;99.90;;;;;;5037701;23;20269;-94
2023/12/07 01:48:03;;;;;;;5.73;3.00;;;4.00;99.90;;;;;;5007391;23;20215;-96
2023/12/07 01:50:42;;;;;;;;;;;;;;;;;;;;;
2023/12/07 01:53:02;;;;;;;9.03;3.97;;;3.80;99.90;;;;;;5035918;23;20154;-94
2023/12/07 01:55:42;;;;;;;;;;;;;;;;;;;;;
2023/12/07 01:58:38;;;;;;;;;;;;;;;;;;;;;
2023/12/07 02:01:24;;;;;;;;;;;;;;;;;;;;;
2023/12/07 02:03:57;;;;;;;;;;;;;;;;;;;;;
2023/12/07 02:06:26;;;;;;;6.30;3.00;;;3.70;99.90;;;;;;5078097;23;20149;-95
2023/12/07 02:11:49;;;;;;;11.97;4.47;;;3.70;99.90;;;;;;5041508;23;20165;-96
2023/12/07 02:14:29;;;;;;;12.00;4.63;;;3.80;99.90;;;;;;5029988;23;20199;-96
2023/12/07 02:17:28;;;;;;;10.40;3.23;;;3.90;99.90;;;;;;5055237;23;20169;-95
2023/12/07 02:20:27;;;;;;;8.53;2.53;;;4.10;99.90;;;;;;5031922;23;20151;-95
2023/12/07 02:22:42;;;;;;;14.73;5.07;;;4.10;99.90;;;;;;4923456;24;20161;-95
2023/12/07 02:25:10;;;;;;;17.20;4.73;;;4.10;99.90;;;;;;5053225;23;20166;-95
2023/12/07 02:27:48;;;;;;;;;;;;;;;;;;;;;
2023/12/07 02:30:12;;;;;;;10.00;4.50;;;4.20;99.90;;;;;;5034777;23;20217;-96
2023/12/07 02:32:50;;;;;;;8.80;3.70;;;4.10;99.90;;;;;;5029358;23;20153;-95
2023/12/07 02:34:54;;;;;;;12.03;3.83;;;4.00;99.90;;;;;;5028306;23;20179;-95
2023/12/07 02:37:37;;;;;;;4.27;2.53;;;4.10;99.90;;;;;;5058274;23;20214;-95
2023/12/07 02:40:07;;;;;;;15.67;4.23;;;3.80;99.90;;;;;;5056663;23;20158;-95
2023/12/07 02:42:34;;;;;;;11.67;4.13;;;3.90;99.90;;;;;;5030361;23;20195;-95
2023/12/07 02:45:24;;;;;;;;;;;;;;;;;;;;;
2023/12/07 02:47:46;;;;;;;10.63;3.80;;;4.10;99.90;;;;;;5048056;23;20158;-95
2023/12/07 02:50:07;;;;;;;12.57;2.93;;;4.20;99.90;;;;;;5033843;23;20451;-95
2023/12/07 02:52:18;;;;;;;14.60;4.13;;;4.10;99.90;;;;;;5051846;23;20146;-95
2023/12/07 02:54:50;;;;;;;13.30;3.53;;;4.00;99.90;;;;;;5024823;23;20185;-95
2023/12/07 02:56:58;;;;;;;;;;;;;;;;;;;;;
2023/12/07 02:59:48;;;;;;;9.87;3.70;;;4.40;99.90;;;;;;5054862;23;20154;-95
2023/12/07 03:01:53;;;;;;;12.30;4.50;;;4.70;99.90;;;;;;5017841;23;20178;-95
2023/12/07 03:04:27;;;;;;;7.13;3.30;;;4.70;99.90;;;;;;5049424;23;20177;-95
2023/12/07 03:06:55;;;;;;;10.30;4.20;;;4.70;99.90;;;;;;5030422;23;20601;-95
2023/12/07 03:09:11;;;;;;;11.33;4.00;;;4.60;99.90;;;;;;5029844;23;20190;-95
2023/12/07 03:11:23;;;;;;;6.17;3.83;;;4.60;99.90;;;;;;5052231;23;20154;-96
2023/12/07 03:13:34;;;;;;;11.80;4.40;;;4.80;99.90;;;;;;5026872;23;20154;-95
2023/12/07 03:15:57;;;;;;;10.87;4.63;;;4.70;99.90;;;;;;5030666;23;20175;-96
2023/12/07 03:18:07;;;;;;;12.40;4.57;;;4.80;99.90;;;;;;5008319;23;20162;-95
2023/12/07 03:20:18;;;;;;;9.37;3.33;;;4.80;99.90;;;;;;5028774;23;20629;-94
2023/12/07 03:22:40;;;;;;;8.27;3.20;;;5.00;99.90;;;;;;5030810;23;20177;-95
2023/12/07 03:24:48;;;;;;;12.97;4.73;;;5.00;99.90;;;;;;5030008;23;20218;-95
2023/12/07 03:27:01;;;;;;;5.10;3.13;;;5.10;99.90;;;;;;5030494;23;20182;-95
2023/12/07 03:29:26;;;;;;;6.87;3.07;;;4.80;99.90;;;;;;5029414;23;20223;-96
2023/12/07 03:34:05;;;;;;;10.47;4.43;;;4.20;99.90;;;;;;5040417;23;20178;-95
2023/12/07 03:36:39;;;;;;;;;;;;;;;;;;;;;
2023/12/07 03:39:56;;;;;;;10.07;3.90;;;4.30;99.90;;;;;;5080373;23;20167;-95
2023/12/07 03:45:42;;;;;;;7.17;3.40;;;4.30;99.90;;;;;;5027420;23;20190;-96
2023/12/07 03:50:28;;;;;;;9.60;3.87;;;4.30;99.90;;;;;;5047894;23;20198;-96
2023/12/07 03:52:49;;;;;;;5.07;3.17;;;4.20;99.90;;;;;;5029441;23;20159;-95
2023/12/07 03:55:01;;;;;;;7.10;3.90;;;4.30;99.90;;;;;;5031059;23;20175;-94
2023/12/07 03:57:42;;;;;;;8.30;3.37;;;4.40;99.90;;;;;;5055871;23;20229;-95
2023/12/07 03:59:59;;;;;;;7.53;3.37;;;4.30;99.90;;;;;;5032391;23;20179;-95
2023/12/07 04:02:09;;;;;;;20.30;4.07;;;4.60;99.90;;;;;;5036307;23;20162;-95
2023/12/07 04:04:23;;;;;;;7.70;3.47;;;4.70;99.90;;;;;;5025601;23;20202;-94
2023/12/07 04:06:51;;;;;;;;;;;;;;;;;;;;;
2023/12/07 04:09:19;;;;;;;9.37;3.57;;;4.80;99.90;;;;;;5081997;23;20257;-95
2023/12/07 04:11:36;;;;;;;13.43;3.93;;;4.80;99.90;;;;;;5037913;23;20230;-94
2023/12/07 04:16:58;;;;;;;;;;;;;;;;;;;;;
2023/12/07 04:19:16;;;;;;;9.97;3.47;;;4.90;99.90;;;;;;5083921;23;20227;-94
2023/12/07 04:21:46;;;;;;;9.40;3.37;;;4.90;99.90;;;;;;5038024;23;20154;-96
2023/12/07 04:24:37;;;;;;;6.50;3.10;;;4.90;99.90;;;;;;5035656;23;20154;-95
2023/12/07 04:29:00;;;;;;;8.00;3.67;;;4.60;99.90;;;;;;5074144;23;20201;-96
2023/12/07 04:31:59;;;;;;;10.87;4.37;;;4.70;99.90;;;;;;5080912;23;20244;-96
2023/12/07 04:34:14;;;;;;;8.50;3.43;;;4.90;99.90;;;;;;5035156;23;20256;-96
2023/12/07 04:37:16;;;;;;;8.00;3.37;;;4.80;99.90;;;;;;5056656;23;20152;-93
2023/12/07 04:40:29;;;;;;;;;;;;;;;;;;;;;
2023/12/07 04:43:30;;;;;;;;;;;;;;;;;;;;;
2023/12/07 04:49:17;;;;;;;8.80;3.83;;;4.70;99.90;;;;;;5078433;23;20192;-94
2023/12/07 04:51:50;;;;;;;11.20;3.30;;;4.30;99.90;;;;;;5052894;23;20620;-96
2023/12/07 04:54:03;;;;;;;7.37;2.93;;;4.30;99.90;;;;;;5020256;23;20218;-93
2023/12/07 04:56:28;;;;;;;;;;;;;;;;;;;;;
2023/12/07 04:58:59;;;;;;;;;;;;;;;;;;;;;
2023/12/07 05:01:18;;;;;;;9.77;3.53;;;4.30;99.90;;;;;;5055018;23;20162;-94
2023/12/07 05:03:29;;;;;;;;;;;;;;;;;;;;;
2023/12/07 05:06:00;;;;;;;5.67;2.43;;;4.40;99.90;;;;;;5049801;23;20454;-94
2023/12/07 05:08:42;;;;;;;8.77;3.33;;;4.20;99.90;;;;;;5057789;23;20501;-96
2023/12/07 05:10:58;;;;;;;7.23;2.77;;;4.20;99.90;;;;;;5048013;23;20154;-93
2023/12/07 05:13:08;;;;;;;5.83;3.20;;;4.10;99.90;;;;;;5046678;23;20154;-94
2023/12/07 05:15:47;;;;;;;;;;;;;;;;;;;;;
2023/12/07 05:18:21;;;;;;;8.17;3.13;;;4.30;99.90;;;;;;5059054;23;20171;-96
2023/12/07 05:20:28;;;;;;;10.00;3.97;;;4.10;99.90;;;;;;5071509;23;20534;-95
2023/12/07 05:23:07;;;;;;;8.60;3.57;;;4.30;99.90;;;;;;5052706;23;20155;-93
2023/12/07 05:25:33;;;;;;;6.13;2.83;;;4.50;99.90;;;;;;5033481;23;20230;-96
2023/12/07 05:27:37;;;;;;;11.03;3.83;;;4.50;99.90;;;;;;5023551;23;20183;-93
2023/12/07 05:30:00;;;;;;;;;;;;;;;;;;;;;
2023/12/07 05:32:19;;;;;;;6.90;3.20;;;4.40;99.90;;;;;;5026528;23;20710;-94
2023/12/07 05:34:41;;;;;;;10.60;3.43;;;4.20;99.90;;;;;;5051717;23;20625;-94
2023/12/07 05:40:28;;;;;;;9.60;3.17;;;4.30;99.90;;;;;;5003113;23;20159;-95
2023/12/07 05:43:06;;;;;;;7.93;3.83;;;4.30;99.90;;;;;;5036227;23;20173;-95
2023/12/07 05:46:18;;;;;;;;;;;;;;;;;;;;;
2023/12/07 05:49:05;;;;;;;16.87;4.00;;;4.50;99.90;;;;;;5062156;23;20241;-96
2023/12/07 05:51:20;;;;;;;6.50;3.23;;;4.30;99.90;;;;;;5063788;23;20165;-96
2023/12/07 05:53:57;;;;;;;6.43;2.43;;;4.30;99.90;;;;;;5025742;23;20202;-94
2023/12/07 05:56:57;;;;;;;6.43;3.00;;;4.30;99.90;;;;;;5017481;23;20167;-95
2023/12/07 06:00:03;;;;;;;5.37;2.67;;;4.20;99.90;;;;;;5068002;23;20209;-96
2023/12/07 06:02:31;;;;;;;6.80;3.43;;;3.90;99.90;;;;;;4990874;23;20170;-96
2023/12/07 06:05:44;;;;;;;8.77;2.93;;;3.90;99.90;;;;;;4964098;23;20272;-95
2023/12/07 06:10:39;;;;;;;7.23;2.57;;;3.80;99.90;;;;;;5079987;23;20210;-95
2023/12/07 06:13:27;;;;;;;5.53;2.83;;;3.80;99.90;;;;;;5037001;23;20146;-95
2023/12/07 06:16:23;;;;;;;8.17;3.20;;;3.80;99.90;;;;;;5053237;23;20214;-95
2023/12/07 06:23:42;;;;;;;5.80;2.67;;;3.90;99.90;;;;;;4996556;23;20170;-96
2023/12/07 06:30:53;;;;;;;;;;;;;;;;;;;;;
2023/12/07 06:40:31;;;;;;;7.40;2.60;;;4.10;99.90;;;;;;5024967;23;20174;-96
2023/12/07 06:47:12;;;;;;;9.53;3.80;;;4.20;99.90;;;;;;5051906;23;20173;-96
2023/12/07 06:55:15;;;;;;;4.63;2.67;;;4.10;99.90;;;;;;5087074;23;20200;-95
2023/12/07 06:58:39;;;;;;;8.67;3.43;;;4.10;99.90;;;;;;5053609;23;20232;-95
2023/12/07 07:01:43;;;;;;;;;;;;;;;;;;;;;
2023/12/07 07:14:03;;;;;;;;;;;;;;;;;;;;;
2023/12/07 07:16:44;;;;;;;5.90;2.90;;;4.20;99.90;;;;;;4991832;23;20171;-96
2023/12/07 07:19:07;;;;;;;6.60;2.73;;;4.30;99.90;;;;;;4998455;23;20204;-93
2023/12/07 07:24:11;;;;;;;4.27;2.17;;;4.40;99.90;;;;;;5076557;23;20224;-94
2023/12/07 07:30:23;;;;;;;7.50;2.63;;;4.20;99.90;;;;;;5056665;23;20189;-94
2023/12/07 07:41:20;;;;;;;8.90;3.17;;;3.90;99.90;;;;;;5066196;23;20196;-95
2023/12/07 07:44:02;;;;;;;12.83;2.87;;;3.90;99.90;;;;;;5010502;23;20638;-94
2023/12/07 07:51:09;;;;;;;5.23;2.47;;;3.80;99.90;;;;;;5084448;23;20268;-95
2023/12/07 07:54:33;;;;;;;;;;;;;;;;;;;;;
2023/12/07 08:00:52;;;;;;;7.07;2.73;;;3.90;99.90;;;;;;5085988;23;20177;-93
2023/12/07 08:03:41;;;;;;;5.73;3.17;;;4.00;99.90;;;;;;5051043;23;20158;-95
2023/12/07 08:08:59;;;;;;;8.27;3.00;;;4.00;99.90;;;;;;5087510;23;20205;-95
2023/12/07 08:11:32;;;;;;;10.27;3.73;;;3.90;99.90;;;;;;5063848;23;20241;-96
2023/12/07 08:14:43;;;;;;;;;;;;;;;;;;;;;
2023/12/07 08:21:35;;;;;;;5.23;2.10;;;4.30;99.90;;;;;;5052217;23;20218;-94
2023/12/07 08:24:39;;;;;;;6.30;2.57;;;4.50;99.90;;;;;;5023252;23;20155;-96
2023/12/07 08:30:37;;;;;;;6.50;3.30;;;4.40;99.90;;;;;;5084451;23;20196;-94
2023/12/07 08:34:25;;;;;;;6.00;2.70;;;4.30;99.90;;;;;;5088636;23;20168;-96
2023/12/07 08:41:44;;;;;;;;;;;;;;;;;;;;;
2023/12/07 08:45:08;;;;;;;4.60;2.40;;;4.70;99.90;;;;;;4874692;24;20183;-95
2023/12/07 09:01:07;;;;;;;3.80;1.93;;;4.50;99.90;;;;;;5064064;23;20257;-95
2023/12/07 09:08:37;;;;;;;6.10;3.20;;;4.50;99.90;;;;;;5061746;23;20146;-95
2023/12/07 09:17:10;;;;;;;7.33;3.17;;;4.90;99.90;;;;;;5078864;23;20197;-95
2023/12/07 09:19:53;;;;;;;9.33;3.00;;;5.00;99.90;;;;;;4967921;23;20227;-96
2023/12/07 09:22:43;;;;;;;;;;;;;;;;;;;;;
2023/12/07 09:40:32;;;;;;;;;;;;;;;;;;;;;
2023/12/07 09:45:46;;;;;;;8.37;2.87;;;5.20;99.90;;;;;;5063925;23;20215;-95
2023/12/07 09:49:13;;;;;;;10.27;3.50;;;5.30;99.90;;;;;;5085689;23;20177;-95
2023/12/07 09:51:55;;;;;;;7.93;3.27;;;5.60;99.90;;;;;;5079547;23;20668;-94
2023/12/07 09:54:01;;;;;;;5.40;2.67;;;5.80;99.90;;;;;;5063781;23;20145;-94
2023/12/07 09:56:25;;;;;;;7.40;3.43;;;5.60;99.90;;;;;;5057830;23;20561;-96
2023/12/07 09:58:42;;;;;;;9.10;3.33;;;5.60;99.90;;;;;;5057103;23;20158;-96
2023/12/07 10:01:54;;;;;;;9.07;2.63;;;5.50;99.90;;;;;;5070306;23;20580;-94
2023/12/07 10:04:33;;;;;;;5.80;2.40;;;5.30;99.90;;;;;;5060874;23;20162;-93
2023/12/07 10:07:49;;;;;;;7.00;2.87;;;5.30;99.90;;;;;;5058035;23;20166;-96
2023/12/07 10:10:18;;;;;;;21.20;4.27;;;5.50;99.90;;;;;;4993653;23;20218;-96
2023/12/07 10:13:05;;;;;;;5.70;2.30;;;5.50;99.90;;;;;;5051916;23;20143;-96
2023/12/07 10:15:33;;;;;;;5.53;2.60;;;5.50;99.90;;;;;;5044715;23;20245;-96
2023/12/07 10:18:14;;;;;;;5.40;3.30;;;5.60;99.90;;;;;;5059398;23;20158;-95
2023/12/07 10:20:58;;;;;;;6.50;3.43;;;5.70;99.90;;;;;;5057532;23;20162;-94
2023/12/07 10:23:18;;;;;;;9.73;3.47;;;5.70;99.90;;;;;;5041578;23;20171;-96
2023/12/07 10:25:46;;;;;;;10.53;2.97;;;6.10;99.90;;;;;;5037849;23;20160;-96
2023/12/07 12:52:57;;;;;;;;;;;;;;;;;;;;;
2023/12/07 13:17:56;;;;;;;8.07;1.77;;;6.80;99.90;;;;;;4814279;24;20172;-95
2023/12/07 13:28:54;;;;;;;2.30;1.00;;;6.70;99.90;;;;;;4785261;24;20257;-95
2023/12/07 13:31:59;;;;;;;2.20;1.33;;;6.70;99.90;;;;;;4908105;23;20208;-95
2023/12/07 13:40:15;;;;;;;2.73;1.07;;;6.70;99.90;;;;;;5064771;23;20169;-95
2023/12/07 13:43:30;;;;;;;;;;;;;;;;;;;;;
2023/12/07 13:46:47;;;;;;;;;;;;;;;;;;;;;
2023/12/07 13:52:35;;;;;;;2.60;0.80;;;6.50;99.90;;;;;;5042361;23;20158;-95
2023/12/07 14:00:44;;;;;;;;;;;;;;;;;;;;;
2023/12/07 14:07:25;;;;;;;;;;;;;;;;;;;;;
2023/12/07 14:14:27;;;;;;;5.33;1.00;;;6.50;99.90;;;;;;4881666;24;20308;-94
2023/12/07 14:28:50;;;;;;;0.70;0.70;;;5.90;99.90;;;;;;4860618;24;20741;-95
2023/12/07 14:31:55;;;;;;;2.10;1.17;;;5.90;99.90;;;;;;4931582;24;20187;-95
2023/12/07 14:34:46;;;;;;;5.80;1.73;;;5.90;99.90;;;;;;4836464;24;20255;-94
2023/12/07 14:37:49;;;;;;;;;;;;;;;;;;;;;
2023/12/07 14:41:12;;;;;;;4.67;1.73;;;5.80;99.90;;;;;;4871517;24;20576;-94
2023/12/07 14:44:41;;;;;;;2.50;1.73;;;5.80;99.90;;;;;;4870784;24;20162;-95
2023/12/07 14:48:05;;;;;;;;;;;;;;;;;;;;;
2023/12/07 14:50:52;;;;;;;6.50;1.47;;;5.70;99.90;;;;;;5031396;23;20233;-95
2023/12/07 14:56:57;;;;;;;2.17;1.30;;;5.80;99.90;;;;;;4858765;24;20255;-95
2023/12/07 14:59:30;;;;;;;4.67;1.40;;;5.80;99.90;;;;;;4841117;24;20160;-95
2023/12/07 15:02:46;;;;;;;2.60;1.30;;;5.90;99.90;;;;;;4910688;24;20170;-96
2023/12/07 15:06:07;;;;;;;4.70;1.67;;;5.80;99.90;;;;;;4914246;24;20260;-95
2023/12/07 15:08:38;;;;;;;3.83;1.10;;;5.60;99.90;;;;;;4906171;24;20178;-95
2023/12/07 15:18:34;;;;;;;;;;;;;;;;;;;;;
2023/12/07 15:21:56;;;;;;;3.33;2.17;;;5.50;99.90;;;;;;4838422;24;20218;-95
2023/12/07 15:25:02;;;;;;;4.27;1.13;;;5.60;99.90;;;;;;4867949;24;20189;-95
2023/12/07 15:28:21;;;;;;;;;;;;;;;;;;;;;
2023/12/07 15:49:40;;;;;;;4.57;1.73;;;5.60;99.90;;;;;;5065549;23;20212;-95
2023/12/07 15:58:46;;;;;;;2.37;1.27;;;5.60;99.90;;;;;;4942944;24;20202;-94
2023/12/07 16:06:45;;;;;;;2.30;1.33;;;5.50;99.90;;;;;;5059696;23;20232;-95
2023/12/07 16:09:14;;;;;;;4.27;1.20;;;5.50;99.90;;;;;;5003973;23;20167;-94
2023/12/07 16:11:24;;;;;;;3.57;1.33;;;5.60;99.90;;;;;;5006745;23;20181;-94
2023/12/07 16:13:51;;;;;;;4.10;1.30;;;5.60;99.90;;;;;;5001550;23;20170;-94
2023/12/07 16:16:14;;;;;;;3.10;1.80;;;5.60;99.90;;;;;;4977528;23;20152;-94
2023/12/07 16:18:29;;;;;;;6.80;1.70;;;5.50;99.90;;;;;;5001982;23;20168;-94
2023/12/07 16:20:41;;;;;;;5.17;1.77;;;5.60;99.90;;;;;;5009153;23;20242;-93
2023/12/07 16:23:14;;;;;;;2.90;1.50;;;5.50;99.90;;;;;;4973968;23;20161;-93
2023/12/07 16:25:32;;;;;;;3.10;1.53;;;5.60;99.90;;;;;;4932996;24;20174;-94
2023/12/07 16:27:48;;;;;;;3.50;1.33;;;5.70;99.90;;;;;;4936523;24;20157;-93
2023/12/07 16:30:09;;;;;;;;;;;;;;;;;;;;;
2023/12/07 16:33:02;;;;;;;2.40;1.50;;;5.40;99.90;;;;;;4984767;23;20158;-93
2023/12/07 16:38:23;;;;;;;5.57;1.80;;;5.50;99.90;;;;;;4908615;24;20169;-93
2023/12/07 16:41:01;;;;;;;4.03;1.60;;;5.50;99.90;;;;;;4924701;24;20217;-94
2023/12/07 16:43:58;;;;;;;2.60;1.23;;;5.60;99.90;;;;;;4960119;23;20202;-93
2023/12/07 16:46:41;;;;;;;2.90;1.73;;;5.70;99.90;;;;;;4931658;24;20162;-95
2023/12/07 16:52:23;;;;;;;4.37;1.43;;;5.70;99.90;;;;;;4946806;24;20157;-95
2023/12/07 16:54:45;;;;;;;3.27;1.43;;;5.70;99.90;;;;;;4926615;24;20188;-93
2023/12/07 16:57:47;;;;;;;2.07;1.07;;;5.70;99.90;;;;;;4942378;23;20175;-94
2023/12/07 17:00:23;;;;;;;8.33;1.80;;;5.70;99.90;;;;;;4916289;24;20165;-94
2023/12/07 17:03:27;;;;;;;6.83;1.40;;;5.70;99.90;;;;;;4914026;24;20170;-95
2023/12/07 17:05:31;;;;;;;2.63;1.23;;;5.70;99.90;;;;;;4952279;24;20184;-93
2023/12/07 17:08:19;;;;;;;4.80;1.77;;;5.80;99.90;;;;;;4963446;23;20190;-95
2023/12/07 17:10:33;;;;;;;10.10;1.83;;;5.90;99.90;;;;;;4952258;23;20220;-94
2023/12/07 17:12:39;;;;;;;4.97;1.50;;;5.90;99.90;;;;;;4951399;23;20156;-94
2023/12/07 17:15:02;;;;;;;2.50;1.13;;;6.10;99.90;;;;;;4951175;23;20177;-95
2023/12/07 17:17:21;;;;;;;3.20;1.40;;;6.10;99.90;;;;;;4973528;23;20217;-94
2023/12/07 17:20:14;;;;;;;2.33;1.47;;;6.10;99.90;;;;;;4992894;23;20188;-94
2023/12/07 17:22:32;;;;;;;3.17;1.17;;;6.00;99.90;;;;;;4949915;24;20172;-94
2023/12/07 17:28:10;;;;;;;2.50;1.40;;;6.00;99.90;;;;;;4955960;23;20284;-93
2023/12/07 17:30:26;;;;;;;3.40;1.23;;;5.90;99.90;;;;;;5001786;23;20199;-94
2023/12/07 17:32:46;;;;;;;;;;;;;;;;;;;;;
2023/12/07 17:35:04;;;;;;;3.33;1.03;;;5.80;99.90;;;;;;5006483;23;20187;-93
2023/12/07 17:37:44;;;;;;;4.03;1.30;;;5.70;99.90;;;;;;5000745;23;20161;-95
2023/12/07 17:40:00;;;;;;;6.57;1.50;;;5.70;99.90;;;;;;4999030;23;20219;-95
2023/12/07 17:42:44;;;;;;;1.60;0.90;;;5.70;99.90;;;;;;5007059;23;20169;-94
2023/12/07 17:48:13;;;;;;;;;;;;;;;;;;;;;
2023/12/07 17:50:34;;;;;;;3.23;1.63;;;5.80;99.90;;;;;;5022233;23;20195;-94
2023/12/07 17:52:38;;;;;;;2.07;1.03;;;5.80;99.90;;;;;;4998470;23;20159;-94
2023/12/07 17:54:47;;;;;;;2.13;1.43;;;5.80;99.90;;;;;;4998330;23;20180;-95
2023/12/07 17:56:59;;;;;;;3.60;1.40;;;5.70;99.90;;;;;;5022498;23;20165;-93
2023/12/07 17:59:04;;;;;;;3.63;1.20;;;5.70;99.90;;;;;;4999001;23;20205;-94
2023/12/07 18:01:31;;;;;;;5.33;1.37;;;5.70;99.90;;;;;;5022447;23;20163;-94
2023/12/07 18:04:01;;;;;;;1.83;0.90;;;5.70;99.90;;;;;;4999940;23;20557;-93
2023/12/07 18:06:11;;;;;;;3.13;1.13;;;5.80;99.90;;;;;;4975019;23;20160;-95
2023/12/07 18:08:35;;;;;;;3.03;1.40;;;5.70;99.90;;;;;;4976812;23;20254;-93
2023/12/07 18:10:56;;;;;;;3.53;1.00;;;5.70;99.90;;;;;;4975026;23;20196;-93
2023/12/07 18:13:08;;;;;;;2.60;1.43;;;5.80;99.90;;;;;;4974942;23;20163;-94
2023/12/07 18:20:26;;;;;;;;;;;;;;;;;;;;;
2023/12/07 18:22:50;;;;;;;3.90;1.37;;;6.00;99.90;;;;;;4973583;23;20202;-94
2023/12/07 18:25:53;;;;;;;3.67;1.47;;;6.10;99.90;;;;;;4950534;23;20196;-94
2023/12/07 18:28:15;;;;;;;4.07;1.07;;;6.10;99.90;;;;;;4882124;24;20610;-95
2023/12/07 18:30:23;;;;;;;4.23;1.10;;;5.90;99.90;;;;;;4904152;24;20193;-93
2023/12/07 18:32:35;;;;;;;2.67;1.43;;;6.10;99.90;;;;;;4944146;23;20603;-94
2023/12/07 18:35:12;;;;;;;7.23;1.13;;;6.10;99.90;;;;;;4951873;23;20189;-94
2023/12/07 18:38:08;;;;;;;2.47;1.00;;;6.00;99.90;;;;;;4986286;23;20159;-94
2023/12/07 18:40:43;;;;;;;1.97;0.97;;;6.10;99.90;;;;;;4962507;23;20160;-93
2023/12/07 18:43:29;;;;;;;2.73;1.47;;;6.10;99.90;;;;;;4951571;23;20525;-95
2023/12/07 18:46:32;;;;;;;2.70;1.23;;;6.10;99.90;;;;;;4945315;23;20654;-93
2023/12/07 18:49:14;;;;;;;6.13;1.90;;;6.30;99.90;;;;;;4969297;23;20159;-94
2023/12/07 18:51:18;;;;;;;4.67;1.53;;;6.40;99.90;;;;;;4998217;23;20167;-94
2023/12/07 18:53:33;;;;;;;3.30;1.80;;;6.30;99.90;;;;;;4999605;23;20151;-93
2023/12/07 18:56:29;;;;;;;2.27;1.17;;;6.40;99.90;;;;;;5030021;23;20210;-94
2023/12/07 18:59:05;;;;;;;3.83;1.60;;;6.50;99.90;;;;;;4972341;23;20185;-95
2023/12/07 19:05:17;;;;;;;4.60;1.50;;;6.50;99.90;;;;;;5006778;23;20206;-95
2023/12/07 19:07:48;;;;;;;3.50;1.20;;;6.40;99.90;;;;;;4950637;24;20153;-94
2023/12/07 19:10:22;;;;;;;2.87;1.23;;;6.30;99.90;;;;;;4921736;24;20223;-93
2023/12/07 19:13:00;;;;;;;6.27;1.50;;;6.00;99.90;;;;;;4929430;24;20512;-94
2023/12/07 19:15:29;;;;;;;4.63;1.10;;;6.00;99.90;;;;;;4905640;24;20712;-94
2023/12/07 19:18:38;;;;;;;2.93;0.97;;;5.80;99.90;;;;;;4967230;23;20216;-93
2023/12/07 19:20:54;;;;;;;4.37;2.03;;;5.70;99.90;;;;;;4951909;23;20157;-94
2023/12/07 19:23:38;;;;;;;5.33;1.70;;;5.60;99.90;;;;;;4951819;23;20259;-95
2023/12/07 19:26:32;;;;;;;5.17;1.67;;;5.90;99.90;;;;;;4930899;24;20174;-93
2023/12/07 19:28:40;;;;;;;3.87;1.47;;;5.80;99.90;;;;;;4920511;24;20162;-94
2023/12/07 19:31:58;;;;;;;4.97;2.43;;;5.80;99.90;;;;;;4905290;24;20217;-95
2023/12/07 19:34:47;;;;;;;1.57;0.40;;;5.80;99.90;;;;;;4873422;24;20197;-93
2023/12/07 19:37:34;;;;;;;2.50;1.17;;;5.60;99.90;;;;;;4929365;24;20240;-94
2023/12/07 19:41:05;;;;;;;;;;;;;;;;;;;;;
2023/12/07 19:44:08;;;;;;;3.43;1.47;;;5.70;99.90;;;;;;4968307;23;20252;-94
2023/12/07 19:47:11;;;;;;;2.63;0.97;;;5.70;99.90;;;;;;4980880;23;20166;-95
2023/12/07 19:50:17;;;;;;;2.33;1.10;;;5.80;99.90;;;;;;4965587;23;20199;-96
2023/12/07 19:53:28;;;;;;;5.77;1.20;;;5.90;99.90;;;;;;4950986;24;20184;-95
2023/12/07 19:59:33;;;;;;;1.53;0.93;;;5.90;99.90;;;;;;5000832;23;20243;-94
2023/12/07 20:01:37;;;;;;;2.30;1.33;;;5.90;99.90;;;;;;4977559;23;20617;-94
2023/12/07 20:03:39;;;;;;;2.20;1.33;;;5.90;99.90;;;;;;4976098;23;20188;-94
2023/12/07 20:06:24;;;;;;;3.73;1.27;;;5.90;99.90;;;;;;5000775;23;20166;-94
2023/12/07 20:09:01;;;;;;;2.30;1.10;;;6.00;99.90;;;;;;4977754;23;20283;-95
2023/12/07 20:12:34;;;;;;;8.83;2.23;;;6.10;99.90;;;;;;4979500;23;20231;-94
2023/12/07 20:15:09;;;;;;;4.67;1.40;;;6.00;99.90;;;;;;4975125;23;20185;-95
2023/12/07 20:17:58;;;;;;;3.13;1.10;;;6.40;99.90;;;;;;4953325;23;20184;-94
2023/12/07 20:20:52;;;;;;;3.53;1.20;;;6.50;99.90;;;;;;4975684;23;20156;-94
2023/12/07 20:23:53;;;;;;;;;;;;;;;;;;;;;
2023/12/07 20:26:41;;;;;;;4.10;1.50;;;6.40;99.90;;;;;;4891980;24;20202;-94
2023/12/07 20:29:32;;;;;;;5.10;1.50;;;6.10;99.90;;;;;;4935505;24;20262;-94
2023/12/07 20:32:06;;;;;;;2.47;1.43;;;6.20;99.90;;;;;;5014729;23;20185;-95
2023/12/07 20:34:33;;;;;;;;;;;;;;;;;;;;;
2023/12/07 20:44:32;;;;;;;2.53;1.10;;;6.30;99.90;;;;;;5071422;23;20257;-96
2023/12/07 20:47:17;;;;;;;2.50;1.27;;;6.20;99.90;;;;;;4998456;23;20177;-96
2023/12/07 20:50:33;;;;;;;;;;;;;;;;;;;;;
2023/12/07 20:53:34;;;;;;;;;;;;;;;;;;;;;
2023/12/07 20:56:31;;;;;;;;;;;;;;;;;;;;;
2023/12/07 20:59:35;;;;;;;3.07;1.27;;;5.90;99.90;;;;;;4951634;24;20169;-94
2023/12/07 21:02:04;;;;;;;2.80;1.20;;;6.00;99.90;;;;;;5026527;23;20158;-93
2023/12/07 21:04:52;;;;;;;;;;;;;;;;;;;;;
2023/12/07 21:07:21;;;;;;;;;;;;;;;;;;;;;
2023/12/07 21:09:42;;;;;;;1.93;1.07;;;6.10;99.90;;;;;;5022863;23;20713;-94
2023/12/07 21:11:49;;;;;;;1.20;0.63;;;6.00;99.90;;;;;;4999760;23;20159;-94
2023/12/07 21:14:19;;;;;;;2.97;1.13;;;6.10;99.90;;;;;;5022992;23;20230;-94
2023/12/07 21:16:25;;;;;;;5.87;1.80;;;6.10;99.90;;;;;;5022381;23;20207;-96
2023/12/07 21:19:21;;;;;;;2.97;1.33;;;6.10;99.90;;;;;;4999896;23;20625;-94
2023/12/07 21:21:28;;;;;;;2.50;0.83;;;6.30;99.90;;;;;;4999263;23;20159;-93
2023/12/07 21:23:31;;;;;;;3.73;1.03;;;6.10;99.90;;;;;;4997743;23;20576;-95
2023/12/07 21:25:47;;;;;;;1.77;0.93;;;6.10;99.90;;;;;;4998396;23;20233;-95
2023/12/07 21:34:25;;;;;;;1.83;1.03;;;6.00;99.90;;;;;;5047855;23;20189;-94
2023/12/07 21:37:00;;;;;;;4.20;1.43;;;6.10;99.90;;;;;;4998475;23;20598;-94
2023/12/07 21:39:08;;;;;;;3.03;1.20;;;6.40;99.90;;;;;;5022318;23;20230;-95
2023/12/07 21:41:14;;;;;;;2.67;1.67;;;6.40;99.90;;;;;;5021774;23;20578;-95
2023/12/07 21:43:43;;;;;;;3.23;1.20;;;6.40;99.90;;;;;;4998061;23;20159;-94
2023/12/07 21:45:44;;;;;;;4.13;1.50;;;6.50;99.90;;;;;;4998235;23;20383;-95
2023/12/07 21:48:22;;;;;;;3.23;1.20;;;6.50;99.90;;;;;;5021866;23;20207;-95
2023/12/07 21:50:24;;;;;;;1.43;0.90;;;6.50;99.90;;;;;;5021398;23;20202;-96
2023/12/07 21:52:26;;;;;;;3.63;1.40;;;6.30;99.90;;;;;;5022528;23;20146;-95
2023/12/07 21:54:30;;;;;;;3.90;1.27;;;6.20;99.90;;;;;;4998279;23;20175;-93
2023/12/07 21:56:34;;;;;;;5.40;1.47;;;6.20;99.90;;;;;;4997430;23;20151;-93
2023/12/07 21:58:38;;;;;;;3.23;1.13;;;6.20;99.90;;;;;;4998774;23;20155;-95
2023/12/07 22:00:41;;;;;;;3.70;1.30;;;6.20;99.90;;;;;;4998583;23;20151;-94
2023/12/07 22:02:56;;;;;;;2.93;1.27;;;6.40;99.90;;;;;;4998480;23;20201;-93
2023/12/07 22:04:57;;;;;;;3.30;1.17;;;6.50;99.90;;;;;;5022107;23;20181;-95
2023/12/07 22:06:58;;;;;;;2.43;1.20;;;6.50;99.90;;;;;;4998651;23;20155;-94
2023/12/07 22:08:59;;;;;;;2.35;1.20;;;6.50;99.90;;;;;;4998493;23;20196;-94
2023/12/07 22:11:03;;;;;;;3.77;1.00;;;6.60;99.90;;;;;;4998554;23;20163;-94